sensor_id;sensor_type;location;lat;lon;timestamp;pressure;altitude;pressure_sealevel;temperature;humidity
57847;BME280;43675;50.030;21.952;2023-04-19T00:01:01;98717.29;;;10.07;69.00
57847;BME280;43675;50.030;21.952;2023-04-19T00:03:28;98713.99;;;10.06;69.05
57847;BME280;43675;50.030;21.952;2023-04-19T00:05:55;98709.53;;;10.06;69.22
57847;BME280;43675;50.030;21.952;2023-04-19T00:08:21;98710.89;;;10.06;69.42
57847;BME280;43675;50.030;21.952;2023-04-19T00:10:48;98704.18;;;10.04;69.42
57847;BME280;43675;50.030;21.952;2023-04-19T00:13:14;98702.00;;;10.03;69.50
57847;BME280;43675;50.030;21.952;2023-04-19T00:15:41;98699.56;;;10.02;69.43
57847;BME280;43675;50.030;21.952;2023-04-19T00:18:07;98698.29;;;10.01;69.42
57847;BME280;43675;50.030;21.952;2023-04-19T00:20:34;98695.00;;;10.00;69.55
57847;BME280;43675;50.030;21.952;2023-04-19T00:23:00;98693.39;;;10.00;69.85
57847;BME280;43675;50.030;21.952;2023-04-19T00:25:27;98694.05;;;9.99;69.88
57847;BME280;43675;50.030;21.952;2023-04-19T00:27:53;98696.23;;;9.99;69.76
57847;BME280;43675;50.030;21.952;2023-04-19T00:30:20;98692.03;;;9.98;69.93
57847;BME280;43675;50.030;21.952;2023-04-19T00:32:46;98697.23;;;9.97;69.95
57847;BME280;43675;50.030;21.952;2023-04-19T00:35:13;98696.58;;;9.95;70.21
57847;BME280;43675;50.030;21.952;2023-04-19T00:37:40;98691.38;;;9.94;70.16
57847;BME280;43675;50.030;21.952;2023-04-19T00:40:07;98688.91;;;9.92;70.29
57847;BME280;43675;50.030;21.952;2023-04-19T00:42:34;98690.14;;;9.91;70.44
57847;BME280;43675;50.030;21.952;2023-04-19T00:45:00;98688.54;;;9.90;70.62
57847;BME280;43675;50.030;21.952;2023-04-19T00:47:27;98685.90;;;9.88;70.67
57847;BME280;43675;50.030;21.952;2023-04-19T00:49:54;98684.39;;;9.87;70.90
57847;BME280;43675;50.030;21.952;2023-04-19T00:52:21;98677.88;;;9.84;71.12
57847;BME280;43675;50.030;21.952;2023-04-19T00:54:48;98675.98;;;9.82;71.13
57847;BME280;43675;50.030;21.952;2023-04-19T00:57:15;98673.89;;;9.81;71.26
57847;BME280;43675;50.030;21.952;2023-04-19T00:59:41;98668.53;;;9.78;71.39
57847;BME280;43675;50.030;21.952;2023-04-19T01:02:08;98672.82;;;9.76;71.77
57847;BME280;43675;50.030;21.952;2023-04-19T01:04:35;98669.04;;;9.72;71.84
57847;BME280;43675;50.030;21.952;2023-04-19T01:07:02;98665.63;;;9.70;71.80
57847;BME280;43675;50.030;21.952;2023-04-19T01:09:28;98666.58;;;9.68;72.26
57847;BME280;43675;50.030;21.952;2023-04-19T01:11:55;98663.39;;;9.66;72.28
57847;BME280;43675;50.030;21.952;2023-04-19T01:14:21;98659.15;;;9.65;72.03
57847;BME280;43675;50.030;21.952;2023-04-19T01:16:48;98659.61;;;9.63;72.11
57847;BME280;43675;50.030;21.952;2023-04-19T01:19:14;98657.92;;;9.61;72.26
57847;BME280;43675;50.030;21.952;2023-04-19T01:21:41;98653.05;;;9.59;72.35
57847;BME280;43675;50.030;21.952;2023-04-19T01:24:07;98651.70;;;9.57;72.50
57847;BME280;43675;50.030;21.952;2023-04-19T01:26:34;98650.10;;;9.55;72.56
57847;BME280;43675;50.030;21.952;2023-04-19T01:29:01;98647.30;;;9.54;72.69
57847;BME280;43675;50.030;21.952;2023-04-19T01:31:27;98646.20;;;9.53;72.58
57847;BME280;43675;50.030;21.952;2023-04-19T01:33:54;98646.23;;;9.51;72.72
57847;BME280;43675;50.030;21.952;2023-04-19T01:36:20;98644.87;;;9.49;72.85
57847;BME280;43675;50.030;21.952;2023-04-19T01:38:47;98638.41;;;9.46;73.04
57847;BME280;43675;50.030;21.952;2023-04-19T01:41:14;98636.11;;;9.45;73.13
57847;BME280;43675;50.030;21.952;2023-04-19T01:43:41;98635.44;;;9.43;73.35
57847;BME280;43675;50.030;21.952;2023-04-19T01:46:07;98626.09;;;9.43;73.36
57847;BME280;43675;50.030;21.952;2023-04-19T01:48:34;98623.73;;;9.42;73.55
57847;BME280;43675;50.030;21.952;2023-04-19T01:51:00;98625.80;;;9.41;73.67
57847;BME280;43675;50.030;21.952;2023-04-19T01:53:27;98623.63;;;9.40;73.80
57847;BME280;43675;50.030;21.952;2023-04-19T01:55:54;98620.89;;;9.39;73.89
57847;BME280;43675;50.030;21.952;2023-04-19T01:58:20;98617.29;;;9.38;73.95
57847;BME280;43675;50.030;21.952;2023-04-19T02:00:47;98618.02;;;9.38;74.13
57847;BME280;43675;50.030;21.952;2023-04-19T02:03:13;98616.83;;;9.36;74.22
57847;BME280;43675;50.030;21.952;2023-04-19T02:05:40;98611.39;;;9.35;74.24
57847;BME280;43675;50.030;21.952;2023-04-19T02:08:06;98615.09;;;9.34;74.40
57847;BME280;43675;50.030;21.952;2023-04-19T02:10:33;98613.58;;;9.34;74.50
57847;BME280;43675;50.030;21.952;2023-04-19T02:12:59;98613.95;;;9.32;74.58
57847;BME280;43675;50.030;21.952;2023-04-19T02:15:26;98615.23;;;9.31;74.75
57847;BME280;43675;50.030;21.952;2023-04-19T02:17:52;98612.55;;;9.29;74.81
57847;BME280;43675;50.030;21.952;2023-04-19T02:20:19;98609.42;;;9.29;74.73
57847;BME280;43675;50.030;21.952;2023-04-19T02:22:45;98605.88;;;9.27;74.85
57847;BME280;43675;50.030;21.952;2023-04-19T02:25:12;98606.48;;;9.27;74.93
57847;BME280;43675;50.030;21.952;2023-04-19T02:27:38;98606.62;;;9.26;74.98
57847;BME280;43675;50.030;21.952;2023-04-19T02:30:06;98603.61;;;9.24;75.02
57847;BME280;43675;50.030;21.952;2023-04-19T02:32:34;98600.15;;;9.24;75.00
57847;BME280;43675;50.030;21.952;2023-04-19T02:35:01;98598.58;;;9.23;74.94
57847;BME280;43675;50.030;21.952;2023-04-19T02:37:28;98598.27;;;9.22;74.99
57847;BME280;43675;50.030;21.952;2023-04-19T02:39:54;98593.45;;;9.19;75.36
57847;BME280;43675;50.030;21.952;2023-04-19T02:42:21;98593.33;;;9.18;75.13
57847;BME280;43675;50.030;21.952;2023-04-19T02:44:47;98593.60;;;9.15;75.36
57847;BME280;43675;50.030;21.952;2023-04-19T02:47:13;98592.55;;;9.14;75.37
57847;BME280;43675;50.030;21.952;2023-04-19T02:49:40;98594.56;;;9.12;75.35
57847;BME280;43675;50.030;21.952;2023-04-19T02:52:07;98590.61;;;9.10;75.45
57847;BME280;43675;50.030;21.952;2023-04-19T02:54:34;98590.52;;;9.08;75.52
57847;BME280;43675;50.030;21.952;2023-04-19T02:57:00;98587.89;;;9.06;75.58
57847;BME280;43675;50.030;21.952;2023-04-19T02:59:27;98585.02;;;9.05;75.71
57847;BME280;43675;50.030;21.952;2023-04-19T03:01:53;98581.67;;;9.03;75.70
57847;BME280;43675;50.030;21.952;2023-04-19T03:04:20;98578.09;;;9.02;75.69
57847;BME280;43675;50.030;21.952;2023-04-19T03:06:46;98576.86;;;9.01;75.88
57847;BME280;43675;50.030;21.952;2023-04-19T03:09:12;98573.86;;;8.99;75.70
57847;BME280;43675;50.030;21.952;2023-04-19T03:11:39;98570.89;;;8.97;75.89
57847;BME280;43675;50.030;21.952;2023-04-19T03:14:05;98572.62;;;8.96;75.82
57847;BME280;43675;50.030;21.952;2023-04-19T03:16:32;98569.00;;;8.94;75.90
57847;BME280;43675;50.030;21.952;2023-04-19T03:18:58;98571.43;;;8.93;75.90
57847;BME280;43675;50.030;21.952;2023-04-19T03:21:25;98572.83;;;8.92;76.04
57847;BME280;43675;50.030;21.952;2023-04-19T03:23:53;98572.42;;;8.91;75.87
57847;BME280;43675;50.030;21.952;2023-04-19T03:26:19;98572.45;;;8.91;76.01
57847;BME280;43675;50.030;21.952;2023-04-19T03:28:46;98572.90;;;8.90;75.87
57847;BME280;43675;50.030;21.952;2023-04-19T03:31:13;98574.46;;;8.91;75.80
57847;BME280;43675;50.030;21.952;2023-04-19T03:33:40;98566.89;;;8.91;75.59
57847;BME280;43675;50.030;21.952;2023-04-19T03:36:06;98566.49;;;8.93;75.51
57847;BME280;43675;50.030;21.952;2023-04-19T03:38:33;98560.43;;;8.94;75.43
57847;BME280;43675;50.030;21.952;2023-04-19T03:41:00;98565.67;;;8.96;75.20
57847;BME280;43675;50.030;21.952;2023-04-19T03:43:26;98561.38;;;8.98;75.02
57847;BME280;43675;50.030;21.952;2023-04-19T03:45:53;98558.83;;;8.98;74.94
57847;BME280;43675;50.030;21.952;2023-04-19T03:48:19;98560.23;;;9.00;74.83
57847;BME280;43675;50.030;21.952;2023-04-19T03:50:46;98561.79;;;9.01;74.77
57847;BME280;43675;50.030;21.952;2023-04-19T03:53:12;98561.02;;;9.02;74.68
57847;BME280;43675;50.030;21.952;2023-04-19T03:55:39;98557.05;;;9.01;74.77
57847;BME280;43675;50.030;21.952;2023-04-19T03:58:05;98557.29;;;9.00;74.74
57847;BME280;43675;50.030;21.952;2023-04-19T04:00:32;98557.01;;;9.00;74.74
57847;BME280;43675;50.030;21.952;2023-04-19T04:02:58;98558.77;;;8.98;74.72
57847;BME280;43675;50.030;21.952;2023-04-19T04:05:26;98556.30;;;8.98;74.77
57847;BME280;43675;50.030;21.952;2023-04-19T04:07:53;98558.41;;;8.97;74.88
57847;BME280;43675;50.030;21.952;2023-04-19T04:10:19;98554.50;;;8.96;74.94
57847;BME280;43675;50.030;21.952;2023-04-19T04:12:46;98553.60;;;8.93;75.01
57847;BME280;43675;50.030;21.952;2023-04-19T04:15:12;98551.98;;;8.91;75.09
57847;BME280;43675;50.030;21.952;2023-04-19T04:17:39;98550.88;;;8.88;75.42
57847;BME280;43675;50.030;21.952;2023-04-19T04:20:06;98551.42;;;8.87;75.41
57847;BME280;43675;50.030;21.952;2023-04-19T04:22:33;98549.73;;;8.84;75.71
57847;BME280;43675;50.030;21.952;2023-04-19T04:24:59;98549.73;;;8.81;75.74
57847;BME280;43675;50.030;21.952;2023-04-19T04:27:26;98550.64;;;8.80;75.95
57847;BME280;43675;50.030;21.952;2023-04-19T04:29:52;98550.80;;;8.79;76.00
57847;BME280;43675;50.030;21.952;2023-04-19T04:32:19;98550.64;;;8.76;75.99
57847;BME280;43675;50.030;21.952;2023-04-19T04:34:45;98552.58;;;8.72;76.10
57847;BME280;43675;50.030;21.952;2023-04-19T04:37:12;98553.80;;;8.68;76.19
57847;BME280;43675;50.030;21.952;2023-04-19T04:39:38;98550.42;;;8.66;76.36
57847;BME280;43675;50.030;21.952;2023-04-19T04:42:05;98557.71;;;8.63;76.65
57847;BME280;43675;50.030;21.952;2023-04-19T04:44:32;98558.27;;;8.60;77.00
57847;BME280;43675;50.030;21.952;2023-04-19T04:46:58;98561.70;;;8.59;76.86
57847;BME280;43675;50.030;21.952;2023-04-19T04:49:25;98560.23;;;8.56;77.15
57847;BME280;43675;50.030;21.952;2023-04-19T04:51:51;98558.61;;;8.54;77.25
57847;BME280;43675;50.030;21.952;2023-04-19T04:54:18;98555.85;;;8.51;77.49
57847;BME280;43675;50.030;21.952;2023-04-19T04:56:44;98559.77;;;8.50;77.65
57847;BME280;43675;50.030;21.952;2023-04-19T04:59:11;98555.47;;;8.48;77.84
57847;BME280;43675;50.030;21.952;2023-04-19T05:01:37;98556.49;;;8.45;77.99
57847;BME280;43675;50.030;21.952;2023-04-19T05:04:04;98558.67;;;8.44;78.18
57847;BME280;43675;50.030;21.952;2023-04-19T05:06:30;98550.85;;;8.42;78.43
57847;BME280;43675;50.030;21.952;2023-04-19T05:08:57;98551.38;;;8.41;78.56
57847;BME280;43675;50.030;21.952;2023-04-19T05:11:23;98552.10;;;8.40;78.66
57847;BME280;43675;50.030;21.952;2023-04-19T05:13:50;98552.99;;;8.38;78.65
57847;BME280;43675;50.030;21.952;2023-04-19T05:16:16;98556.61;;;8.37;78.84
57847;BME280;43675;50.030;21.952;2023-04-19T05:18:43;98554.30;;;8.36;79.05
57847;BME280;43675;50.030;21.952;2023-04-19T05:21:09;98555.83;;;8.36;79.18
57847;BME280;43675;50.030;21.952;2023-04-19T05:23:36;98554.80;;;8.36;79.16
57847;BME280;43675;50.030;21.952;2023-04-19T05:26:03;98550.52;;;8.36;79.32
57847;BME280;43675;50.030;21.952;2023-04-19T05:28:30;98548.50;;;8.36;79.40
57847;BME280;43675;50.030;21.952;2023-04-19T05:30:56;98548.50;;;8.37;79.44
57847;BME280;43675;50.030;21.952;2023-04-19T05:33:23;98548.80;;;8.39;79.54
57847;BME280;43675;50.030;21.952;2023-04-19T05:35:49;98544.31;;;8.41;79.36
57847;BME280;43675;50.030;21.952;2023-04-19T05:38:16;98542.02;;;8.42;79.27
57847;BME280;43675;50.030;21.952;2023-04-19T05:40:42;98543.91;;;8.43;79.38
57847;BME280;43675;50.030;21.952;2023-04-19T05:43:09;98543.63;;;8.46;79.44
57847;BME280;43675;50.030;21.952;2023-04-19T05:45:36;98545.80;;;8.48;79.50
57847;BME280;43675;50.030;21.952;2023-04-19T05:48:03;98543.59;;;8.50;79.27
57847;BME280;43675;50.030;21.952;2023-04-19T05:50:29;98542.48;;;8.50;79.18
57847;BME280;43675;50.030;21.952;2023-04-19T05:52:56;98541.90;;;8.52;79.18
57847;BME280;43675;50.030;21.952;2023-04-19T05:55:22;98544.66;;;8.54;79.04
57847;BME280;43675;50.030;21.952;2023-04-19T05:57:49;98546.02;;;8.56;79.03
57847;BME280;43675;50.030;21.952;2023-04-19T06:00:16;98550.10;;;8.60;79.01
57847;BME280;43675;50.030;21.952;2023-04-19T06:02:42;98550.99;;;8.63;78.55
57847;BME280;43675;50.030;21.952;2023-04-19T06:05:09;98551.33;;;8.65;78.56
57847;BME280;43675;50.030;21.952;2023-04-19T06:07:36;98555.66;;;8.67;78.49
57847;BME280;43675;50.030;21.952;2023-04-19T06:10:03;98554.20;;;8.68;78.10
57847;BME280;43675;50.030;21.952;2023-04-19T06:12:29;98555.28;;;8.71;78.04
57847;BME280;43675;50.030;21.952;2023-04-19T06:14:56;98552.23;;;8.72;77.91
57847;BME280;43675;50.030;21.952;2023-04-19T06:17:22;98553.56;;;8.73;77.51
57847;BME280;43675;50.030;21.952;2023-04-19T06:19:50;98556.19;;;8.74;77.65
57847;BME280;43675;50.030;21.952;2023-04-19T06:22:17;98554.30;;;8.75;77.38
57847;BME280;43675;50.030;21.952;2023-04-19T06:24:44;98556.36;;;8.76;77.37
57847;BME280;43675;50.030;21.952;2023-04-19T06:27:11;98555.16;;;8.75;77.18
57847;BME280;43675;50.030;21.952;2023-04-19T06:29:37;98553.84;;;8.75;77.12
57847;BME280;43675;50.030;21.952;2023-04-19T06:32:04;98556.61;;;8.74;77.16
57847;BME280;43675;50.030;21.952;2023-04-19T06:34:30;98557.56;;;8.74;77.06
57847;BME280;43675;50.030;21.952;2023-04-19T06:36:57;98559.48;;;8.72;76.97
57847;BME280;43675;50.030;21.952;2023-04-19T06:39:23;98561.63;;;8.72;76.94
57847;BME280;43675;50.030;21.952;2023-04-19T06:41:50;98557.67;;;8.73;76.91
57847;BME280;43675;50.030;21.952;2023-04-19T06:44:16;98559.13;;;8.74;76.78
57847;BME280;43675;50.030;21.952;2023-04-19T06:46:43;98560.84;;;8.74;76.77
57847;BME280;43675;50.030;21.952;2023-04-19T06:49:09;98561.88;;;8.75;76.60
57847;BME280;43675;50.030;21.952;2023-04-19T06:51:38;98567.48;;;8.74;76.62
57847;BME280;43675;50.030;21.952;2023-04-19T06:54:04;98563.98;;;8.74;76.84
57847;BME280;43675;50.030;21.952;2023-04-19T06:56:42;98560.71;;;8.74;76.82
57847;BME280;43675;50.030;21.952;2023-04-19T06:59:08;98565.13;;;8.73;76.71
57847;BME280;43675;50.030;21.952;2023-04-19T07:01:35;98562.61;;;8.74;76.57
57847;BME280;43675;50.030;21.952;2023-04-19T07:04:02;98562.56;;;8.75;76.66
57847;BME280;43675;50.030;21.952;2023-04-19T07:06:28;98566.31;;;8.75;76.84
57847;BME280;43675;50.030;21.952;2023-04-19T07:08:55;98565.62;;;8.75;76.71
57847;BME280;43675;50.030;21.952;2023-04-19T07:11:21;98564.51;;;8.76;76.92
57847;BME280;43675;50.030;21.952;2023-04-19T07:13:49;98562.09;;;8.78;76.69
57847;BME280;43675;50.030;21.952;2023-04-19T07:16:15;98563.39;;;8.79;76.86
57847;BME280;43675;50.030;21.952;2023-04-19T07:18:42;98559.70;;;8.81;76.89
57847;BME280;43675;50.030;21.952;2023-04-19T07:21:09;98562.45;;;8.85;76.91
57847;BME280;43675;50.030;21.952;2023-04-19T07:23:35;98561.31;;;8.89;76.64
57847;BME280;43675;50.030;21.952;2023-04-19T07:26:02;98565.48;;;8.94;76.68
57847;BME280;43675;50.030;21.952;2023-04-19T07:28:29;98561.09;;;8.97;76.64
57847;BME280;43675;50.030;21.952;2023-04-19T07:30:56;98564.50;;;9.01;76.54
57847;BME280;43675;50.030;21.952;2023-04-19T07:33:23;98562.29;;;9.04;76.07
57847;BME280;43675;50.030;21.952;2023-04-19T07:35:49;98565.61;;;9.09;76.11
57847;BME280;43675;50.030;21.952;2023-04-19T07:38:16;98565.33;;;9.12;75.96
57847;BME280;43675;50.030;21.952;2023-04-19T07:40:43;98567.38;;;9.14;75.95
57847;BME280;43675;50.030;21.952;2023-04-19T07:43:09;98564.86;;;9.16;75.79
57847;BME280;43675;50.030;21.952;2023-04-19T07:45:36;98562.23;;;9.17;75.77
57847;BME280;43675;50.030;21.952;2023-04-19T07:48:03;98569.48;;;9.17;75.78
57847;BME280;43675;50.030;21.952;2023-04-19T07:50:29;98568.33;;;9.16;75.41
57847;BME280;43675;50.030;21.952;2023-04-19T07:52:56;98569.46;;;9.17;75.51
57847;BME280;43675;50.030;21.952;2023-04-19T07:55:22;98572.19;;;9.19;75.64
57847;BME280;43675;50.030;21.952;2023-04-19T07:57:49;98570.48;;;9.25;75.45
57847;BME280;43675;50.030;21.952;2023-04-19T08:00:17;98573.48;;;9.30;75.54
57847;BME280;43675;50.030;21.952;2023-04-19T08:02:44;98572.81;;;9.37;75.41
57847;BME280;43675;50.030;21.952;2023-04-19T08:05:11;98568.02;;;9.45;75.26
57847;BME280;43675;50.030;21.952;2023-04-19T08:07:39;98567.96;;;9.50;75.03
57847;BME280;43675;50.030;21.952;2023-04-19T08:10:06;98572.67;;;9.48;75.09
57847;BME280;43675;50.030;21.952;2023-04-19T08:12:33;98569.25;;;9.47;75.11
57847;BME280;43675;50.030;21.952;2023-04-19T08:14:59;98564.80;;;9.47;75.10
57847;BME280;43675;50.030;21.952;2023-04-19T08:17:26;98564.42;;;9.48;74.99
57847;BME280;43675;50.030;21.952;2023-04-19T08:19:53;98565.63;;;9.47;75.29
57847;BME280;43675;50.030;21.952;2023-04-19T08:22:20;98564.84;;;9.46;75.32
57847;BME280;43675;50.030;21.952;2023-04-19T08:24:48;98567.23;;;9.46;75.27
57847;BME280;43675;50.030;21.952;2023-04-19T08:27:15;98568.99;;;9.46;75.31
57847;BME280;43675;50.030;21.952;2023-04-19T08:29:41;98569.45;;;9.47;75.05
57847;BME280;43675;50.030;21.952;2023-04-19T08:32:08;98567.36;;;9.49;75.35
57847;BME280;43675;50.030;21.952;2023-04-19T08:34:35;98569.23;;;9.55;75.25
57847;BME280;43675;50.030;21.952;2023-04-19T08:37:02;98569.80;;;9.59;75.20
57847;BME280;43675;50.030;21.952;2023-04-19T08:39:30;98569.47;;;9.64;74.95
57847;BME280;43675;50.030;21.952;2023-04-19T08:42:10;98568.71;;;9.63;74.94
57847;BME280;43675;50.030;21.952;2023-04-19T08:44:36;98571.10;;;9.65;74.94
57847;BME280;43675;50.030;21.952;2023-04-19T08:47:05;98568.84;;;9.67;74.91
57847;BME280;43675;50.030;21.952;2023-04-19T08:49:38;98569.43;;;9.70;74.86
57847;BME280;43675;50.030;21.952;2023-04-19T08:52:08;98574.38;;;9.79;74.91
57847;BME280;43675;50.030;21.952;2023-04-19T08:54:35;98570.75;;;9.91;75.03
57847;BME280;43675;50.030;21.952;2023-04-19T08:57:04;98568.64;;;10.02;74.69
57847;BME280;43675;50.030;21.952;2023-04-19T08:59:30;98568.14;;;10.07;74.52
57847;BME280;43675;50.030;21.952;2023-04-19T09:02:00;98565.48;;;10.10;74.36
57847;BME280;43675;50.030;21.952;2023-04-19T09:04:27;98563.52;;;10.19;74.19
57847;BME280;43675;50.030;21.952;2023-04-19T09:06:54;98562.91;;;10.32;74.16
57847;BME280;43675;50.030;21.952;2023-04-19T09:11:47;98567.25;;;10.69;73.49
57847;BME280;43675;50.030;21.952;2023-04-19T09:14:17;98564.58;;;10.88;73.18
57847;BME280;43675;50.030;21.952;2023-04-19T09:16:44;98561.50;;;11.09;72.79
57847;BME280;43675;50.030;21.952;2023-04-19T09:19:11;98566.44;;;11.38;72.34
57847;BME280;43675;50.030;21.952;2023-04-19T09:21:38;98558.24;;;11.62;71.66
57847;BME280;43675;50.030;21.952;2023-04-19T09:24:06;98554.67;;;11.88;71.09
57847;BME280;43675;50.030;21.952;2023-04-19T09:26:33;98550.25;;;12.06;70.36
57847;BME280;43675;50.030;21.952;2023-04-19T09:29:04;98546.43;;;12.28;69.95
57847;BME280;43675;50.030;21.952;2023-04-19T09:31:36;98546.17;;;12.49;69.28
57847;BME280;43675;50.030;21.952;2023-04-19T09:34:17;98549.10;;;12.72;68.84
57847;BME280;43675;50.030;21.952;2023-04-19T09:36:44;98554.52;;;12.85;68.07
57847;BME280;43675;50.030;21.952;2023-04-19T09:39:10;98551.01;;;13.00;67.82
57847;BME280;43675;50.030;21.952;2023-04-19T09:41:50;98553.10;;;13.08;67.18
57847;BME280;43675;50.030;21.952;2023-04-19T09:44:18;98551.36;;;13.05;66.80
57847;BME280;43675;50.030;21.952;2023-04-19T09:46:45;98551.73;;;13.14;66.93
57847;BME280;43675;50.030;21.952;2023-04-19T09:49:22;98553.33;;;13.26;66.47
57847;BME280;43675;50.030;21.952;2023-04-19T09:51:51;98553.81;;;13.26;66.02
57847;BME280;43675;50.030;21.952;2023-04-19T09:54:20;98554.16;;;13.21;65.76
57847;BME280;43675;50.030;21.952;2023-04-19T09:56:47;98556.40;;;13.21;65.85
57847;BME280;43675;50.030;21.952;2023-04-19T09:59:14;98556.27;;;13.23;65.67
57847;BME280;43675;50.030;21.952;2023-04-19T10:01:42;98558.04;;;13.22;65.66
57847;BME280;43675;50.030;21.952;2023-04-19T10:04:11;98557.79;;;13.16;65.63
57847;BME280;43675;50.030;21.952;2023-04-19T10:06:39;98559.51;;;13.10;65.61
57847;BME280;43675;50.030;21.952;2023-04-19T10:09:06;98559.37;;;13.02;65.59
57847;BME280;43675;50.030;21.952;2023-04-19T10:11:36;98555.17;;;12.93;65.44
57847;BME280;43675;50.030;21.952;2023-04-19T10:14:07;98552.49;;;12.92;65.44
57847;BME280;43675;50.030;21.952;2023-04-19T10:16:35;98551.55;;;13.02;65.23
57847;BME280;43675;50.030;21.952;2023-04-19T10:19:06;98553.55;;;13.12;65.07
57847;BME280;43675;50.030;21.952;2023-04-19T10:21:34;98550.73;;;13.19;64.83
57847;BME280;43675;50.030;21.952;2023-04-19T10:24:03;98548.45;;;13.22;64.53
57847;BME280;43675;50.030;21.952;2023-04-19T10:32:20;98547.05;;;13.29;64.73
57847;BME280;43675;50.030;21.952;2023-04-19T10:34:47;98547.98;;;13.28;64.38
57847;BME280;43675;50.030;21.952;2023-04-19T10:37:13;98548.64;;;13.28;64.31
57847;BME280;43675;50.030;21.952;2023-04-19T10:39:42;98548.34;;;13.27;64.08
57847;BME280;43675;50.030;21.952;2023-04-19T10:42:09;98546.79;;;13.20;63.96
57847;BME280;43675;50.030;21.952;2023-04-19T10:44:35;98549.00;;;13.16;64.02
57847;BME280;43675;50.030;21.952;2023-04-19T10:47:04;98547.55;;;13.12;63.85
57847;BME280;43675;50.030;21.952;2023-04-19T10:49:43;98544.39;;;13.10;63.96
57847;BME280;43675;50.030;21.952;2023-04-19T10:52:26;98550.26;;;13.14;64.07
57847;BME280;43675;50.030;21.952;2023-04-19T10:54:56;98551.02;;;13.24;63.99
57847;BME280;43675;50.030;21.952;2023-04-19T10:57:22;98554.08;;;13.35;63.66
57847;BME280;43675;50.030;21.952;2023-04-19T11:02:44;98557.42;;;13.19;63.53
57847;BME280;43675;50.030;21.952;2023-04-19T11:05:11;98556.30;;;13.19;63.41
57847;BME280;43675;50.030;21.952;2023-04-19T11:07:38;98557.56;;;13.18;63.24
57847;BME280;43675;50.030;21.952;2023-04-19T11:10:06;98556.51;;;13.19;63.20
57847;BME280;43675;50.030;21.952;2023-04-19T11:12:33;98552.39;;;13.22;62.96
57847;BME280;43675;50.030;21.952;2023-04-19T11:15:00;98558.30;;;13.29;63.02
57847;BME280;43675;50.030;21.952;2023-04-19T11:17:30;98558.31;;;13.36;62.90
57847;BME280;43675;50.030;21.952;2023-04-19T11:20:05;98559.39;;;13.41;62.52
57847;BME280;43675;50.030;21.952;2023-04-19T11:22:34;98560.58;;;13.44;62.50
57847;BME280;43675;50.030;21.952;2023-04-19T11:25:17;98560.21;;;13.58;62.40
57847;BME280;43675;50.030;21.952;2023-04-19T11:27:49;98558.43;;;13.78;62.13
57847;BME280;43675;50.030;21.952;2023-04-19T11:30:18;98557.03;;;14.02;61.80
57847;BME280;43675;50.030;21.952;2023-04-19T11:32:47;98554.03;;;14.22;61.54
57847;BME280;43675;50.030;21.952;2023-04-19T11:35:17;98549.48;;;14.36;60.83
57847;BME280;43675;50.030;21.952;2023-04-19T11:37:44;98549.66;;;14.37;60.68
57847;BME280;43675;50.030;21.952;2023-04-19T11:40:18;98547.77;;;14.38;60.82
57847;BME280;43675;50.030;21.952;2023-04-19T11:42:48;98555.79;;;14.33;60.85
57847;BME280;43675;50.030;21.952;2023-04-19T11:45:29;98551.15;;;14.27;60.91
57847;BME280;43675;50.030;21.952;2023-04-19T11:47:56;98550.34;;;14.12;60.93
57847;BME280;43675;50.030;21.952;2023-04-19T11:53:15;98553.23;;;14.10;61.62
57847;BME280;43675;50.030;21.952;2023-04-19T11:55:55;98548.52;;;14.13;61.50
57847;BME280;43675;50.030;21.952;2023-04-19T11:58:33;98551.73;;;14.17;61.46
57847;BME280;43675;50.030;21.952;2023-04-19T12:01:12;98549.23;;;14.15;61.46
57847;BME280;43675;50.030;21.952;2023-04-19T12:03:59;98543.46;;;14.04;61.10
57847;BME280;43675;50.030;21.952;2023-04-19T12:06:29;98542.30;;;13.99;61.16
57847;BME280;43675;50.030;21.952;2023-04-19T12:08:56;98540.65;;;14.11;61.26
57847;BME280;43675;50.030;21.952;2023-04-19T12:11:25;98537.19;;;14.41;61.27
57847;BME280;43675;50.030;21.952;2023-04-19T12:14:11;98536.68;;;14.80;60.59
57847;BME280;43675;50.030;21.952;2023-04-19T12:16:38;98540.13;;;15.30;60.05
57847;BME280;43675;50.030;21.952;2023-04-19T12:19:12;98535.09;;;15.66;58.55
57847;BME280;43675;50.030;21.952;2023-04-19T12:21:40;98532.07;;;15.96;57.89
57847;BME280;43675;50.030;21.952;2023-04-19T12:24:06;98528.73;;;16.12;57.22
57847;BME280;43675;50.030;21.952;2023-04-19T12:26:33;98523.34;;;16.24;57.17
57847;BME280;43675;50.030;21.952;2023-04-19T12:29:00;98521.08;;;16.49;57.13
57847;BME280;43675;50.030;21.952;2023-04-19T12:31:29;98520.84;;;16.68;56.60
57847;BME280;43675;50.030;21.952;2023-04-19T12:33:56;98520.88;;;16.72;56.07
57847;BME280;43675;50.030;21.952;2023-04-19T12:36:23;98519.67;;;16.59;55.70
57847;BME280;43675;50.030;21.952;2023-04-19T12:38:50;98514.55;;;16.43;55.67
57847;BME280;43675;50.030;21.952;2023-04-19T12:41:16;98515.37;;;16.37;55.70
57847;BME280;43675;50.030;21.952;2023-04-19T12:43:43;98515.58;;;16.37;55.74
57847;BME280;43675;50.030;21.952;2023-04-19T12:46:09;98515.80;;;16.32;55.55
57847;BME280;43675;50.030;21.952;2023-04-19T12:48:36;98513.81;;;16.34;55.80
57847;BME280;43675;50.030;21.952;2023-04-19T12:51:02;98512.13;;;16.50;55.46
57847;BME280;43675;50.030;21.952;2023-04-19T12:53:29;98512.67;;;16.71;55.30
57847;BME280;43675;50.030;21.952;2023-04-19T12:55:56;98508.30;;;17.05;55.00
57847;BME280;43675;50.030;21.952;2023-04-19T12:58:22;98509.39;;;17.14;54.10
57847;BME280;43675;50.030;21.952;2023-04-19T13:00:49;98510.52;;;17.04;53.58
57847;BME280;43675;50.030;21.952;2023-04-19T13:03:16;98511.86;;;16.89;53.87
57847;BME280;43675;50.030;21.952;2023-04-19T13:05:42;98512.47;;;16.67;53.76
57847;BME280;43675;50.030;21.952;2023-04-19T13:08:09;98509.14;;;16.49;53.80
57847;BME280;43675;50.030;21.952;2023-04-19T13:10:35;98508.70;;;16.42;54.18
57847;BME280;43675;50.030;21.952;2023-04-19T13:13:02;98513.98;;;16.29;54.08